KGTR/GTR METAR and TAF weather

Enter ICAO airport designator
Station Type Date Time Source
KGTR METAR 2019/10/22 15:56 UTC NOAA

KGTR 221556Z 27008KT 10SM CLR 18/08 A3011 RMK AO2 SLP202 T01780083 PNO $


Station Type Date Time Source
KGTR Decoded METAR 2019/10/22 15:56 UTC NOAA

Columbus/West Point/Starkville, Golden Triangle Regional Airport, MS, United States (KGTR) 33-27N 088-35W
Oct 22, 2019 - 11:56 AM EDT / 2019.10.22 1556 UTC
Wind: from the W (270 degrees) at 9 MPH (8 KT):0
Visibility: 10 mile(s):0
Sky conditions: clear
Temperature: 64.0 F (17.8 C)
Dew Point: 46.9 F (8.3 C)
Relative Humidity: 53%
Pressure (altimeter): 30.11 in. Hg (1019 hPa)
ob: KGTR 221556Z 27008KT 10SM CLR 18/08 A3011 RMK AO2 SLP202 T01780083 PNO
cycle: 16

Station Type Date Time Source
KGTR TAF 2019/10/22 12:39 UTC NOAA

TAF KGTR 221136Z 2212/2312 27003KT 3SM BR SKC
FM221300 30011KT P6SM SKC
FM222300 30004KT P6SM SKC

Example: see airport list